sensor_id;sensor_type;location;lat;lon;timestamp;P1;durP1;ratioP1;P2;durP2;ratioP2
24467;SDS011;12634;50.852;5.676;2023-12-04T00:01:46;10.90;;;6.68;;
24467;SDS011;12634;50.852;5.676;2023-12-04T00:04:15;11.50;;;6.28;;
24467;SDS011;12634;50.852;5.676;2023-12-04T00:06:42;11.10;;;6.68;;
24467;SDS011;12634;50.852;5.676;2023-12-04T00:09:09;12.32;;;6.60;;
24467;SDS011;12634;50.852;5.676;2023-12-04T00:11:37;11.52;;;6.47;;
24467;SDS011;12634;50.852;5.676;2023-12-04T00:14:04;11.05;;;6.45;;
24467;SDS011;12634;50.852;5.676;2023-12-04T00:16:33;9.50;;;6.30;;
24467;SDS011;12634;50.852;5.676;2023-12-04T00:19:00;9.02;;;5.60;;
24467;SDS011;12634;50.852;5.676;2023-12-04T00:21:29;10.10;;;6.22;;
24467;SDS011;12634;50.852;5.676;2023-12-04T00:23:56;11.00;;;5.97;;
24467;SDS011;12634;50.852;5.676;2023-12-04T00:26:23;13.25;;;7.18;;
24467;SDS011;12634;50.852;5.676;2023-12-04T00:28:50;10.00;;;6.35;;
24467;SDS011;12634;50.852;5.676;2023-12-04T00:31:17;10.15;;;5.93;;
24467;SDS011;12634;50.852;5.676;2023-12-04T00:33:45;8.95;;;5.72;;
24467;SDS011;12634;50.852;5.676;2023-12-04T00:36:13;12.20;;;6.43;;
24467;SDS011;12634;50.852;5.676;2023-12-04T00:38:41;9.13;;;5.60;;
24467;SDS011;12634;50.852;5.676;2023-12-04T00:41:08;10.95;;;5.60;;
24467;SDS011;12634;50.852;5.676;2023-12-04T00:43:36;11.65;;;6.82;;
24467;SDS011;12634;50.852;5.676;2023-12-04T00:46:05;9.77;;;6.15;;
24467;SDS011;12634;50.852;5.676;2023-12-04T00:48:32;9.90;;;5.90;;
24467;SDS011;12634;50.852;5.676;2023-12-04T00:50:59;6.82;;;4.45;;
24467;SDS011;12634;50.852;5.676;2023-12-04T00:53:27;10.68;;;6.07;;
24467;SDS011;12634;50.852;5.676;2023-12-04T00:55:55;9.35;;;6.13;;
24467;SDS011;12634;50.852;5.676;2023-12-04T00:58:22;11.02;;;5.65;;
24467;SDS011;12634;50.852;5.676;2023-12-04T01:00:49;12.18;;;6.47;;
24467;SDS011;12634;50.852;5.676;2023-12-04T01:03:17;12.48;;;5.65;;
24467;SDS011;12634;50.852;5.676;2023-12-04T01:05:44;9.40;;;5.93;;
24467;SDS011;12634;50.852;5.676;2023-12-04T01:08:11;9.77;;;6.03;;
24467;SDS011;12634;50.852;5.676;2023-12-04T01:10:39;10.43;;;5.47;;
24467;SDS011;12634;50.852;5.676;2023-12-04T01:13:07;9.85;;;5.43;;
24467;SDS011;12634;50.852;5.676;2023-12-04T01:15:35;9.40;;;5.13;;
24467;SDS011;12634;50.852;5.676;2023-12-04T01:18:04;8.98;;;5.53;;
24467;SDS011;12634;50.852;5.676;2023-12-04T01:20:31;7.90;;;4.70;;
24467;SDS011;12634;50.852;5.676;2023-12-04T01:22:58;8.07;;;4.90;;
24467;SDS011;12634;50.852;5.676;2023-12-04T01:25:25;9.60;;;6.00;;
24467;SDS011;12634;50.852;5.676;2023-12-04T01:27:52;9.35;;;5.70;;
24467;SDS011;12634;50.852;5.676;2023-12-04T01:30:21;8.00;;;4.93;;
24467;SDS011;12634;50.852;5.676;2023-12-04T01:32:48;9.48;;;5.70;;
24467;SDS011;12634;50.852;5.676;2023-12-04T01:35:16;9.57;;;5.88;;
24467;SDS011;12634;50.852;5.676;2023-12-04T01:37:43;10.32;;;5.97;;
24467;SDS011;12634;50.852;5.676;2023-12-04T01:40:11;11.23;;;5.32;;
24467;SDS011;12634;50.852;5.676;2023-12-04T01:42:38;11.20;;;6.20;;
24467;SDS011;12634;50.852;5.676;2023-12-04T01:45:06;12.07;;;5.70;;
24467;SDS011;12634;50.852;5.676;2023-12-04T01:47:35;8.45;;;5.22;;
24467;SDS011;12634;50.852;5.676;2023-12-04T01:50:03;7.93;;;4.40;;
24467;SDS011;12634;50.852;5.676;2023-12-04T01:52:31;7.80;;;5.03;;
24467;SDS011;12634;50.852;5.676;2023-12-04T01:54:58;10.40;;;4.80;;
24467;SDS011;12634;50.852;5.676;2023-12-04T01:57:25;10.07;;;5.50;;
24467;SDS011;12634;50.852;5.676;2023-12-04T01:59:53;8.63;;;5.38;;
24467;SDS011;12634;50.852;5.676;2023-12-04T02:02:20;9.18;;;6.07;;
24467;SDS011;12634;50.852;5.676;2023-12-04T02:04:48;15.77;;;6.00;;
24467;SDS011;12634;50.852;5.676;2023-12-04T02:07:16;9.02;;;5.38;;
24467;SDS011;12634;50.852;5.676;2023-12-04T02:09:44;9.32;;;5.75;;
24467;SDS011;12634;50.852;5.676;2023-12-04T02:12:11;9.32;;;6.00;;
24467;SDS011;12634;50.852;5.676;2023-12-04T02:14:38;8.82;;;5.60;;
24467;SDS011;12634;50.852;5.676;2023-12-04T02:17:05;9.35;;;5.43;;
24467;SDS011;12634;50.852;5.676;2023-12-04T02:19:34;9.27;;;5.57;;
24467;SDS011;12634;50.852;5.676;2023-12-04T02:22:03;7.70;;;5.05;;
24467;SDS011;12634;50.852;5.676;2023-12-04T02:24:31;9.07;;;5.25;;
24467;SDS011;12634;50.852;5.676;2023-12-04T02:27:02;10.25;;;5.50;;
24467;SDS011;12634;50.852;5.676;2023-12-04T02:29:36;7.32;;;4.75;;
24467;SDS011;12634;50.852;5.676;2023-12-04T02:32:08;10.27;;;5.65;;
24467;SDS011;12634;50.852;5.676;2023-12-04T02:34:40;8.55;;;5.30;;
24467;SDS011;12634;50.852;5.676;2023-12-04T02:37:09;10.20;;;5.03;;
24467;SDS011;12634;50.852;5.676;2023-12-04T02:39:39;8.05;;;4.80;;
24467;SDS011;12634;50.852;5.676;2023-12-04T02:42:06;8.48;;;4.85;;
24467;SDS011;12634;50.852;5.676;2023-12-04T02:44:33;7.32;;;4.70;;
24467;SDS011;12634;50.852;5.676;2023-12-04T02:47:00;8.63;;;5.32;;
24467;SDS011;12634;50.852;5.676;2023-12-04T02:49:28;9.63;;;5.50;;
24467;SDS011;12634;50.852;5.676;2023-12-04T02:51:55;9.10;;;5.57;;
24467;SDS011;12634;50.852;5.676;2023-12-04T02:54:22;8.30;;;5.28;;
24467;SDS011;12634;50.852;5.676;2023-12-04T02:56:51;7.95;;;5.32;;
24467;SDS011;12634;50.852;5.676;2023-12-04T02:59:18;8.70;;;5.32;;
24467;SDS011;12634;50.852;5.676;2023-12-04T03:01:45;8.65;;;5.75;;
24467;SDS011;12634;50.852;5.676;2023-12-04T03:04:12;9.77;;;5.75;;
24467;SDS011;12634;50.852;5.676;2023-12-04T03:06:39;9.85;;;5.90;;
24467;SDS011;12634;50.852;5.676;2023-12-04T03:09:06;9.70;;;5.15;;
24467;SDS011;12634;50.852;5.676;2023-12-04T03:11:34;9.75;;;5.28;;
24467;SDS011;12634;50.852;5.676;2023-12-04T03:14:02;8.25;;;5.40;;
24467;SDS011;12634;50.852;5.676;2023-12-04T03:16:29;9.25;;;5.55;;
24467;SDS011;12634;50.852;5.676;2023-12-04T03:18:56;9.45;;;5.40;;
24467;SDS011;12634;50.852;5.676;2023-12-04T03:21:24;9.15;;;5.75;;
24467;SDS011;12634;50.852;5.676;2023-12-04T03:23:51;8.25;;;5.38;;
24467;SDS011;12634;50.852;5.676;2023-12-04T03:26:18;9.70;;;5.13;;
24467;SDS011;12634;50.852;5.676;2023-12-04T03:28:45;8.63;;;5.32;;
24467;SDS011;12634;50.852;5.676;2023-12-04T03:31:14;10.13;;;5.43;;
24467;SDS011;12634;50.852;5.676;2023-12-04T03:33:41;8.15;;;5.25;;
24467;SDS011;12634;50.852;5.676;2023-12-04T03:36:08;7.75;;;4.85;;
24467;SDS011;12634;50.852;5.676;2023-12-04T03:38:35;11.48;;;4.55;;
24467;SDS011;12634;50.852;5.676;2023-12-04T03:41:03;7.97;;;4.88;;
24467;SDS011;12634;50.852;5.676;2023-12-04T03:43:30;7.57;;;4.90;;
24467;SDS011;12634;50.852;5.676;2023-12-04T03:45:58;7.82;;;5.25;;
24467;SDS011;12634;50.852;5.676;2023-12-04T03:48:27;7.72;;;4.72;;
24467;SDS011;12634;50.852;5.676;2023-12-04T03:50:53;7.00;;;4.40;;
24467;SDS011;12634;50.852;5.676;2023-12-04T03:53:20;7.60;;;4.72;;
24467;SDS011;12634;50.852;5.676;2023-12-04T03:55:47;8.45;;;4.68;;
24467;SDS011;12634;50.852;5.676;2023-12-04T03:58:14;7.53;;;4.55;;
24467;SDS011;12634;50.852;5.676;2023-12-04T04:00:41;7.22;;;4.40;;
24467;SDS011;12634;50.852;5.676;2023-12-04T04:03:08;8.40;;;4.97;;
24467;SDS011;12634;50.852;5.676;2023-12-04T04:05:37;7.72;;;4.85;;
24467;SDS011;12634;50.852;5.676;2023-12-04T04:08:04;7.03;;;4.70;;
24467;SDS011;12634;50.852;5.676;2023-12-04T04:10:33;7.40;;;4.43;;
24467;SDS011;12634;50.852;5.676;2023-12-04T04:13:00;7.00;;;4.28;;
24467;SDS011;12634;50.852;5.676;2023-12-04T04:15:27;7.32;;;4.40;;
24467;SDS011;12634;50.852;5.676;2023-12-04T04:17:54;7.28;;;4.53;;
24467;SDS011;12634;50.852;5.676;2023-12-04T04:20:21;6.70;;;4.20;;
24467;SDS011;12634;50.852;5.676;2023-12-04T04:22:50;7.20;;;4.63;;
24467;SDS011;12634;50.852;5.676;2023-12-04T04:25:18;7.80;;;4.10;;
24467;SDS011;12634;50.852;5.676;2023-12-04T04:27:46;6.57;;;3.90;;
24467;SDS011;12634;50.852;5.676;2023-12-04T04:30:14;5.57;;;3.65;;
24467;SDS011;12634;50.852;5.676;2023-12-04T04:32:42;8.30;;;4.28;;
24467;SDS011;12634;50.852;5.676;2023-12-04T04:35:09;6.25;;;3.95;;
24467;SDS011;12634;50.852;5.676;2023-12-04T04:37:36;5.90;;;4.05;;
24467;SDS011;12634;50.852;5.676;2023-12-04T04:40:06;7.18;;;3.80;;
24467;SDS011;12634;50.852;5.676;2023-12-04T04:42:34;7.05;;;4.03;;
24467;SDS011;12634;50.852;5.676;2023-12-04T04:45:01;7.07;;;4.57;;
24467;SDS011;12634;50.852;5.676;2023-12-04T04:47:28;5.95;;;4.07;;
24467;SDS011;12634;50.852;5.676;2023-12-04T04:49:55;7.45;;;4.13;;
24467;SDS011;12634;50.852;5.676;2023-12-04T04:52:22;5.95;;;3.83;;
24467;SDS011;12634;50.852;5.676;2023-12-04T04:54:49;6.55;;;3.85;;
24467;SDS011;12634;50.852;5.676;2023-12-04T04:57:18;7.63;;;4.22;;
24467;SDS011;12634;50.852;5.676;2023-12-04T04:59:45;5.22;;;3.30;;
24467;SDS011;12634;50.852;5.676;2023-12-04T05:02:12;6.15;;;3.90;;
24467;SDS011;12634;50.852;5.676;2023-12-04T05:04:39;5.45;;;3.28;;
24467;SDS011;12634;50.852;5.676;2023-12-04T05:07:06;7.07;;;3.85;;
24467;SDS011;12634;50.852;5.676;2023-12-04T05:09:33;7.47;;;3.70;;
24467;SDS011;12634;50.852;5.676;2023-12-04T05:12:01;6.55;;;4.00;;
24467;SDS011;12634;50.852;5.676;2023-12-04T05:14:29;5.63;;;3.63;;
24467;SDS011;12634;50.852;5.676;2023-12-04T05:16:56;7.10;;;3.63;;
24467;SDS011;12634;50.852;5.676;2023-12-04T05:19:23;5.60;;;3.70;;
24467;SDS011;12634;50.852;5.676;2023-12-04T05:21:51;5.85;;;4.13;;
24467;SDS011;12634;50.852;5.676;2023-12-04T05:24:18;6.40;;;3.38;;
24467;SDS011;12634;50.852;5.676;2023-12-04T05:26:45;5.03;;;3.17;;
24467;SDS011;12634;50.852;5.676;2023-12-04T05:29:12;9.60;;;4.25;;
24467;SDS011;12634;50.852;5.676;2023-12-04T05:31:40;5.63;;;3.50;;
24467;SDS011;12634;50.852;5.676;2023-12-04T05:34:08;5.75;;;3.40;;
24467;SDS011;12634;50.852;5.676;2023-12-04T05:36:35;6.97;;;3.70;;
24467;SDS011;12634;50.852;5.676;2023-12-04T05:39:02;5.25;;;3.53;;
24467;SDS011;12634;50.852;5.676;2023-12-04T05:41:29;5.78;;;3.38;;
24467;SDS011;12634;50.852;5.676;2023-12-04T05:43:57;5.57;;;3.33;;
24467;SDS011;12634;50.852;5.676;2023-12-04T05:46:24;5.43;;;3.03;;
24467;SDS011;12634;50.852;5.676;2023-12-04T05:48:53;6.65;;;3.10;;
24467;SDS011;12634;50.852;5.676;2023-12-04T05:51:20;4.85;;;3.08;;
24467;SDS011;12634;50.852;5.676;2023-12-04T05:53:47;5.25;;;3.10;;
24467;SDS011;12634;50.852;5.676;2023-12-04T05:56:14;5.13;;;3.20;;
24467;SDS011;12634;50.852;5.676;2023-12-04T05:58:42;4.53;;;2.80;;
24467;SDS011;12634;50.852;5.676;2023-12-04T06:01:10;4.93;;;3.00;;
24467;SDS011;12634;50.852;5.676;2023-12-04T06:03:38;5.45;;;2.80;;
24467;SDS011;12634;50.852;5.676;2023-12-04T06:06:06;5.10;;;2.75;;
24467;SDS011;12634;50.852;5.676;2023-12-04T06:08:34;5.18;;;2.78;;
24467;SDS011;12634;50.852;5.676;2023-12-04T06:11:01;4.05;;;2.70;;
24467;SDS011;12634;50.852;5.676;2023-12-04T06:13:28;5.43;;;2.85;;
24467;SDS011;12634;50.852;5.676;2023-12-04T06:15:55;4.15;;;2.72;;
24467;SDS011;12634;50.852;5.676;2023-12-04T06:18:23;5.43;;;3.00;;
24467;SDS011;12634;50.852;5.676;2023-12-04T06:20:50;3.25;;;2.25;;
24467;SDS011;12634;50.852;5.676;2023-12-04T06:23:18;4.65;;;2.40;;
24467;SDS011;12634;50.852;5.676;2023-12-04T06:25:46;3.80;;;2.58;;
24467;SDS011;12634;50.852;5.676;2023-12-04T06:28:14;3.45;;;2.30;;
24467;SDS011;12634;50.852;5.676;2023-12-04T06:30:41;2.97;;;1.77;;
24467;SDS011;12634;50.852;5.676;2023-12-04T06:33:09;3.90;;;2.35;;
24467;SDS011;12634;50.852;5.676;2023-12-04T06:35:38;4.22;;;2.63;;
24467;SDS011;12634;50.852;5.676;2023-12-04T06:38:06;4.10;;;2.33;;
24467;SDS011;12634;50.852;5.676;2023-12-04T06:40:35;2.80;;;1.95;;
24467;SDS011;12634;50.852;5.676;2023-12-04T06:43:04;4.35;;;2.50;;
24467;SDS011;12634;50.852;5.676;2023-12-04T06:45:32;5.63;;;2.35;;
24467;SDS011;12634;50.852;5.676;2023-12-04T06:48:00;6.55;;;2.65;;
24467;SDS011;12634;50.852;5.676;2023-12-04T06:50:27;4.35;;;1.95;;
24467;SDS011;12634;50.852;5.676;2023-12-04T06:52:55;3.97;;;2.30;;
24467;SDS011;12634;50.852;5.676;2023-12-04T06:55:22;3.30;;;1.90;;
24467;SDS011;12634;50.852;5.676;2023-12-04T06:57:51;3.78;;;2.10;;
24467;SDS011;12634;50.852;5.676;2023-12-04T07:00:18;2.90;;;1.65;;
24467;SDS011;12634;50.852;5.676;2023-12-04T07:02:46;2.67;;;1.45;;
24467;SDS011;12634;50.852;5.676;2023-12-04T07:05:13;4.97;;;1.90;;
24467;SDS011;12634;50.852;5.676;2023-12-04T07:07:40;2.78;;;1.80;;
24467;SDS011;12634;50.852;5.676;2023-12-04T07:10:08;2.50;;;1.42;;
24467;SDS011;12634;50.852;5.676;2023-12-04T07:12:39;3.45;;;1.90;;
24467;SDS011;12634;50.852;5.676;2023-12-04T07:15:08;3.15;;;2.00;;
24467;SDS011;12634;50.852;5.676;2023-12-04T07:17:36;2.95;;;1.77;;
24467;SDS011;12634;50.852;5.676;2023-12-04T07:20:04;3.25;;;1.75;;
24467;SDS011;12634;50.852;5.676;2023-12-04T07:22:32;3.40;;;2.10;;
24467;SDS011;12634;50.852;5.676;2023-12-04T07:25:00;3.85;;;1.77;;
24467;SDS011;12634;50.852;5.676;2023-12-04T07:27:27;3.25;;;1.80;;
24467;SDS011;12634;50.852;5.676;2023-12-04T07:29:54;3.58;;;1.48;;
24467;SDS011;12634;50.852;5.676;2023-12-04T07:32:23;3.25;;;1.98;;
24467;SDS011;12634;50.852;5.676;2023-12-04T07:34:51;3.35;;;1.70;;
24467;SDS011;12634;50.852;5.676;2023-12-04T07:37:18;1.77;;;1.30;;
24467;SDS011;12634;50.852;5.676;2023-12-04T07:39:45;2.53;;;1.42;;
24467;SDS011;12634;50.852;5.676;2023-12-04T07:42:13;1.73;;;1.20;;
24467;SDS011;12634;50.852;5.676;2023-12-04T07:44:40;2.50;;;1.52;;
24467;SDS011;12634;50.852;5.676;2023-12-04T07:47:08;3.08;;;2.05;;
24467;SDS011;12634;50.852;5.676;2023-12-04T07:49:36;1.95;;;1.40;;
24467;SDS011;12634;50.852;5.676;2023-12-04T07:52:04;3.38;;;1.83;;
24467;SDS011;12634;50.852;5.676;2023-12-04T07:54:31;3.67;;;1.95;;
24467;SDS011;12634;50.852;5.676;2023-12-04T07:56:58;4.57;;;1.65;;
24467;SDS011;12634;50.852;5.676;2023-12-04T07:59:26;4.28;;;1.80;;
24467;SDS011;12634;50.852;5.676;2023-12-04T08:01:53;3.55;;;1.88;;
24467;SDS011;12634;50.852;5.676;2023-12-04T08:04:20;2.67;;;1.58;;
24467;SDS011;12634;50.852;5.676;2023-12-04T08:06:49;2.95;;;1.75;;
24467;SDS011;12634;50.852;5.676;2023-12-04T08:09:16;5.75;;;1.95;;
24467;SDS011;12634;50.852;5.676;2023-12-04T08:11:43;3.95;;;2.00;;
24467;SDS011;12634;50.852;5.676;2023-12-04T08:14:10;4.47;;;2.00;;
24467;SDS011;12634;50.852;5.676;2023-12-04T08:16:38;3.75;;;1.92;;
24467;SDS011;12634;50.852;5.676;2023-12-04T08:19:05;3.05;;;1.70;;
24467;SDS011;12634;50.852;5.676;2023-12-04T08:21:32;3.50;;;1.70;;
24467;SDS011;12634;50.852;5.676;2023-12-04T08:24:01;3.72;;;2.28;;
24467;SDS011;12634;50.852;5.676;2023-12-04T08:26:28;4.22;;;2.53;;
24467;SDS011;12634;50.852;5.676;2023-12-04T08:28:55;2.90;;;2.08;;
24467;SDS011;12634;50.852;5.676;2023-12-04T08:31:23;5.20;;;2.50;;
24467;SDS011;12634;50.852;5.676;2023-12-04T08:33:50;2.88;;;1.63;;
24467;SDS011;12634;50.852;5.676;2023-12-04T08:36:17;4.32;;;2.10;;
24467;SDS011;12634;50.852;5.676;2023-12-04T08:38:45;4.10;;;2.00;;
24467;SDS011;12634;50.852;5.676;2023-12-04T08:41:14;4.13;;;2.50;;
24467;SDS011;12634;50.852;5.676;2023-12-04T08:43:41;3.40;;;2.00;;
24467;SDS011;12634;50.852;5.676;2023-12-04T08:46:11;4.00;;;2.33;;
24467;SDS011;12634;50.852;5.676;2023-12-04T08:48:39;4.70;;;2.47;;
24467;SDS011;12634;50.852;5.676;2023-12-04T08:51:07;3.92;;;2.20;;
24467;SDS011;12634;50.852;5.676;2023-12-04T08:53:34;5.40;;;2.35;;
24467;SDS011;12634;50.852;5.676;2023-12-04T08:56:02;3.95;;;2.42;;
24467;SDS011;12634;50.852;5.676;2023-12-04T08:58:31;3.85;;;2.33;;
24467;SDS011;12634;50.852;5.676;2023-12-04T09:00:58;3.95;;;2.60;;
24467;SDS011;12634;50.852;5.676;2023-12-04T09:03:26;4.43;;;2.45;;
24467;SDS011;12634;50.852;5.676;2023-12-04T09:05:53;4.35;;;2.40;;
24467;SDS011;12634;50.852;5.676;2023-12-04T09:08:21;4.57;;;2.70;;
24467;SDS011;12634;50.852;5.676;2023-12-04T09:10:51;5.75;;;2.50;;
24467;SDS011;12634;50.852;5.676;2023-12-04T09:13:18;5.88;;;2.83;;
24467;SDS011;12634;50.852;5.676;2023-12-04T09:15:47;6.60;;;2.97;;
24467;SDS011;12634;50.852;5.676;2023-12-04T09:18:14;4.55;;;3.05;;
24467;SDS011;12634;50.852;5.676;2023-12-04T09:20:42;4.35;;;2.72;;
24467;SDS011;12634;50.852;5.676;2023-12-04T09:23:09;6.07;;;2.40;;
24467;SDS011;12634;50.852;5.676;2023-12-04T09:25:37;4.45;;;2.63;;
24467;SDS011;12634;50.852;5.676;2023-12-04T09:28:04;6.10;;;2.85;;
24467;SDS011;12634;50.852;5.676;2023-12-04T09:30:33;4.20;;;2.55;;
24467;SDS011;12634;50.852;5.676;2023-12-04T09:33:03;5.15;;;2.97;;
24467;SDS011;12634;50.852;5.676;2023-12-04T09:35:31;6.13;;;3.00;;
24467;SDS011;12634;50.852;5.676;2023-12-04T09:37:58;5.47;;;3.20;;
24467;SDS011;12634;50.852;5.676;2023-12-04T09:40:26;5.57;;;2.80;;
24467;SDS011;12634;50.852;5.676;2023-12-04T09:42:53;6.45;;;3.05;;
24467;SDS011;12634;50.852;5.676;2023-12-04T09:45:21;5.32;;;3.25;;
24467;SDS011;12634;50.852;5.676;2023-12-04T09:47:50;5.45;;;3.35;;
24467;SDS011;12634;50.852;5.676;2023-12-04T09:50:19;6.13;;;2.75;;
24467;SDS011;12634;50.852;5.676;2023-12-04T09:52:47;5.20;;;3.45;;
24467;SDS011;12634;50.852;5.676;2023-12-04T09:55:16;3.75;;;2.35;;
24467;SDS011;12634;50.852;5.676;2023-12-04T09:57:44;6.18;;;3.08;;
24467;SDS011;12634;50.852;5.676;2023-12-04T10:00:13;6.45;;;3.55;;
24467;SDS011;12634;50.852;5.676;2023-12-04T10:02:41;4.28;;;2.60;;
24467;SDS011;12634;50.852;5.676;2023-12-04T10:05:08;5.82;;;3.35;;
24467;SDS011;12634;50.852;5.676;2023-12-04T10:07:37;4.43;;;2.80;;
24467;SDS011;12634;50.852;5.676;2023-12-04T10:10:05;5.78;;;3.35;;
24467;SDS011;12634;50.852;5.676;2023-12-04T10:12:33;5.60;;;3.15;;
24467;SDS011;12634;50.852;5.676;2023-12-04T10:15:02;6.57;;;4.05;;
24467;SDS011;12634;50.852;5.676;2023-12-04T10:17:34;7.55;;;3.95;;
24467;SDS011;12634;50.852;5.676;2023-12-04T10:20:07;4.90;;;2.85;;
24467;SDS011;12634;50.852;5.676;2023-12-04T10:22:38;5.80;;;3.85;;
24467;SDS011;12634;50.852;5.676;2023-12-04T10:25:16;6.60;;;3.88;;
24467;SDS011;12634;50.852;5.676;2023-12-04T10:27:44;4.85;;;3.47;;
24467;SDS011;12634;50.852;5.676;2023-12-04T10:30:21;6.25;;;4.03;;
24467;SDS011;12634;50.852;5.676;2023-12-04T10:32:53;6.60;;;4.32;;
24467;SDS011;12634;50.852;5.676;2023-12-04T10:35:21;5.57;;;3.33;;
24467;SDS011;12634;50.852;5.676;2023-12-04T10:37:50;5.90;;;3.90;;
24467;SDS011;12634;50.852;5.676;2023-12-04T10:40:24;6.55;;;4.15;;
24467;SDS011;12634;50.852;5.676;2023-12-04T10:42:57;7.43;;;4.15;;
24467;SDS011;12634;50.852;5.676;2023-12-04T10:45:37;7.80;;;4.78;;
24467;SDS011;12634;50.852;5.676;2023-12-04T10:48:05;6.78;;;4.13;;
24467;SDS011;12634;50.852;5.676;2023-12-04T10:50:33;5.80;;;4.10;;
24467;SDS011;12634;50.852;5.676;2023-12-04T10:53:02;6.97;;;4.32;;
24467;SDS011;12634;50.852;5.676;2023-12-04T10:55:30;7.10;;;4.43;;
24467;SDS011;12634;50.852;5.676;2023-12-04T10:57:57;5.97;;;3.47;;
24467;SDS011;12634;50.852;5.676;2023-12-04T11:00:26;6.65;;;4.40;;
24467;SDS011;12634;50.852;5.676;2023-12-04T11:02:57;9.32;;;5.50;;
24467;SDS011;12634;50.852;5.676;2023-12-04T11:05:33;6.70;;;4.55;;
24467;SDS011;12634;50.852;5.676;2023-12-04T11:08:06;7.00;;;4.22;;
24467;SDS011;12634;50.852;5.676;2023-12-04T11:10:36;8.20;;;4.47;;
24467;SDS011;12634;50.852;5.676;2023-12-04T11:13:10;8.43;;;4.57;;
24467;SDS011;12634;50.852;5.676;2023-12-04T11:15:44;6.43;;;3.92;;
24467;SDS011;12634;50.852;5.676;2023-12-04T11:18:15;7.13;;;4.30;;
24467;SDS011;12634;50.852;5.676;2023-12-04T11:20:48;9.20;;;3.83;;
24467;SDS011;12634;50.852;5.676;2023-12-04T11:23:22;7.35;;;4.35;;
24467;SDS011;12634;50.852;5.676;2023-12-04T11:25:50;5.93;;;3.90;;
24467;SDS011;12634;50.852;5.676;2023-12-04T11:28:18;6.40;;;3.75;;
24467;SDS011;12634;50.852;5.676;2023-12-04T11:30:46;4.60;;;3.22;;
24467;SDS011;12634;50.852;5.676;2023-12-04T11:33:15;5.55;;;3.25;;
24467;SDS011;12634;50.852;5.676;2023-12-04T11:35:42;4.95;;;3.10;;
24467;SDS011;12634;50.852;5.676;2023-12-04T11:38:12;4.45;;;3.05;;
24467;SDS011;12634;50.852;5.676;2023-12-04T11:40:42;5.72;;;3.00;;
24467;SDS011;12634;50.852;5.676;2023-12-04T11:43:23;4.68;;;2.95;;
24467;SDS011;12634;50.852;5.676;2023-12-04T11:45:52;4.88;;;2.97;;
24467;SDS011;12634;50.852;5.676;2023-12-04T11:48:22;4.57;;;2.95;;
24467;SDS011;12634;50.852;5.676;2023-12-04T11:50:50;4.32;;;2.78;;
24467;SDS011;12634;50.852;5.676;2023-12-04T11:53:17;3.85;;;2.35;;
24467;SDS011;12634;50.852;5.676;2023-12-04T11:55:46;3.88;;;2.55;;
24467;SDS011;12634;50.852;5.676;2023-12-04T11:58:13;4.45;;;2.72;;
24467;SDS011;12634;50.852;5.676;2023-12-04T12:00:42;7.10;;;2.80;;
24467;SDS011;12634;50.852;5.676;2023-12-04T12:03:14;4.75;;;2.70;;
24467;SDS011;12634;50.852;5.676;2023-12-04T12:05:42;4.18;;;2.60;;
24467;SDS011;12634;50.852;5.676;2023-12-04T12:08:10;4.30;;;2.55;;
24467;SDS011;12634;50.852;5.676;2023-12-04T12:10:37;4.15;;;2.45;;
24467;SDS011;12634;50.852;5.676;2023-12-04T12:13:06;5.20;;;2.65;;
24467;SDS011;12634;50.852;5.676;2023-12-04T12:15:33;4.65;;;2.95;;
24467;SDS011;12634;50.852;5.676;2023-12-04T12:18:00;5.85;;;3.15;;
24467;SDS011;12634;50.852;5.676;2023-12-04T12:20:29;4.78;;;2.90;;
24467;SDS011;12634;50.852;5.676;2023-12-04T12:22:56;4.68;;;3.10;;
24467;SDS011;12634;50.852;5.676;2023-12-04T12:25:24;4.32;;;2.85;;
24467;SDS011;12634;50.852;5.676;2023-12-04T12:27:51;5.82;;;3.20;;
24467;SDS011;12634;50.852;5.676;2023-12-04T12:30:20;5.05;;;2.90;;
24467;SDS011;12634;50.852;5.676;2023-12-04T12:32:48;3.92;;;2.55;;
24467;SDS011;12634;50.852;5.676;2023-12-04T12:35:17;5.43;;;3.53;;
24467;SDS011;12634;50.852;5.676;2023-12-04T12:37:44;6.80;;;3.00;;
24467;SDS011;12634;50.852;5.676;2023-12-04T12:40:12;4.50;;;2.85;;
24467;SDS011;12634;50.852;5.676;2023-12-04T12:42:40;3.85;;;3.03;;
24467;SDS011;12634;50.852;5.676;2023-12-04T12:45:08;3.83;;;2.22;;
24467;SDS011;12634;50.852;5.676;2023-12-04T12:47:39;4.78;;;3.20;;
24467;SDS011;12634;50.852;5.676;2023-12-04T12:50:08;4.18;;;2.58;;
24467;SDS011;12634;50.852;5.676;2023-12-04T12:52:38;5.40;;;3.00;;
24467;SDS011;12634;50.852;5.676;2023-12-04T12:55:06;3.65;;;2.38;;
24467;SDS011;12634;50.852;5.676;2023-12-04T12:57:34;4.05;;;2.67;;
24467;SDS011;12634;50.852;5.676;2023-12-04T13:00:02;4.63;;;2.47;;
24467;SDS011;12634;50.852;5.676;2023-12-04T13:02:33;3.45;;;2.30;;
24467;SDS011;12634;50.852;5.676;2023-12-04T13:05:03;3.10;;;1.90;;
24467;SDS011;12634;50.852;5.676;2023-12-04T13:07:32;2.53;;;1.77;;
24467;SDS011;12634;50.852;5.676;2023-12-04T13:10:00;3.17;;;2.28;;
24467;SDS011;12634;50.852;5.676;2023-12-04T13:12:30;3.55;;;2.33;;
24467;SDS011;12634;50.852;5.676;2023-12-04T13:14:57;2.75;;;1.98;;
24467;SDS011;12634;50.852;5.676;2023-12-04T13:17:24;2.90;;;1.77;;
24467;SDS011;12634;50.852;5.676;2023-12-04T13:19:51;2.58;;;1.60;;
24467;SDS011;12634;50.852;5.676;2023-12-04T13:22:20;3.03;;;1.85;;
24467;SDS011;12634;50.852;5.676;2023-12-04T13:24:47;2.58;;;1.45;;
24467;SDS011;12634;50.852;5.676;2023-12-04T13:27:14;2.88;;;1.83;;
24467;SDS011;12634;50.852;5.676;2023-12-04T13:29:42;2.60;;;1.75;;
24467;SDS011;12634;50.852;5.676;2023-12-04T13:32:09;3.50;;;2.45;;
24467;SDS011;12634;50.852;5.676;2023-12-04T13:34:36;2.20;;;1.52;;
24467;SDS011;12634;50.852;5.676;2023-12-04T13:37:03;3.05;;;2.00;;
24467;SDS011;12634;50.852;5.676;2023-12-04T13:39:32;2.75;;;1.85;;
24467;SDS011;12634;50.852;5.676;2023-12-04T13:42:12;1.83;;;1.23;;
24467;SDS011;12634;50.852;5.676;2023-12-04T13:44:58;2.88;;;1.90;;
24467;SDS011;12634;50.852;5.676;2023-12-04T13:47:26;2.65;;;2.08;;
24467;SDS011;12634;50.852;5.676;2023-12-04T13:49:53;3.08;;;1.90;;
24467;SDS011;12634;50.852;5.676;2023-12-04T13:52:21;2.95;;;2.05;;
24467;SDS011;12634;50.852;5.676;2023-12-04T13:54:50;2.67;;;1.90;;
24467;SDS011;12634;50.852;5.676;2023-12-04T13:57:19;2.88;;;2.05;;
24467;SDS011;12634;50.852;5.676;2023-12-04T13:59:52;3.22;;;1.88;;
24467;SDS011;12634;50.852;5.676;2023-12-04T14:02:20;3.13;;;2.17;;
24467;SDS011;12634;50.852;5.676;2023-12-04T14:04:47;2.40;;;1.50;;
24467;SDS011;12634;50.852;5.676;2023-12-04T14:07:14;3.58;;;1.98;;
24467;SDS011;12634;50.852;5.676;2023-12-04T14:09:42;4.47;;;2.03;;
24467;SDS011;12634;50.852;5.676;2023-12-04T14:12:11;3.50;;;2.20;;
24467;SDS011;12634;50.852;5.676;2023-12-04T14:14:39;3.05;;;2.10;;
24467;SDS011;12634;50.852;5.676;2023-12-04T14:17:06;3.13;;;2.15;;
24467;SDS011;12634;50.852;5.676;2023-12-04T14:19:34;3.83;;;2.17;;
24467;SDS011;12634;50.852;5.676;2023-12-04T14:22:04;2.88;;;2.10;;
24467;SDS011;12634;50.852;5.676;2023-12-04T14:24:31;3.35;;;2.30;;
24467;SDS011;12634;50.852;5.676;2023-12-04T14:27:00;3.10;;;2.13;;
24467;SDS011;12634;50.852;5.676;2023-12-04T14:29:29;3.38;;;2.20;;
24467;SDS011;12634;50.852;5.676;2023-12-04T14:31:56;3.22;;;2.22;;
24467;SDS011;12634;50.852;5.676;2023-12-04T14:34:23;3.15;;;2.13;;
24467;SDS011;12634;50.852;5.676;2023-12-04T14:36:51;4.40;;;2.30;;
24467;SDS011;12634;50.852;5.676;2023-12-04T14:39:18;2.80;;;2.13;;
24467;SDS011;12634;50.852;5.676;2023-12-04T14:41:45;3.95;;;2.20;;
24467;SDS011;12634;50.852;5.676;2023-12-04T14:44:13;3.10;;;2.08;;
24467;SDS011;12634;50.852;5.676;2023-12-04T14:46:41;2.85;;;1.83;;
24467;SDS011;12634;50.852;5.676;2023-12-04T14:49:10;3.33;;;2.00;;
24467;SDS011;12634;50.852;5.676;2023-12-04T14:51:37;3.35;;;2.28;;